1 października 2022

Czas Kod Pogoda Temp. Widoczność Sufit Wiatr METAR/SPECI
02:05
L
3 °C ⅜ mi 200 ft Var 000° 0 kt METAR CZVL 010805Z AUTO 00000KT 3/8SM R26/1200FT/N FG BKN002 03/03 A3023 RMK SLP264
02:00
L
5 °C ⅜ mi - Var 000° 0 kt METAR CZVL 010800Z AUTO 00000KT 3/8SM R26/1200FT/N FG SCT002 05/05 A3023 RMK SLP251
01:43
L
6 °C ⅜ mi - 160° 160° 2 kt METAR CZVL 010743Z AUTO 16002KT 3/8SM R26/0700V1200FT/ FG FEW002 06/06 A3022 RMK SLP259
01:38
I
6 °C 1½ mi - 180° 180° 3 kt METAR CZVL 010738Z AUTO 18003KT 1 1/2SM R26/1100V1800FT/ BR FEW002 06/06 A3022 RMK SLP258
01:25
V
5 °C 9 mi - Var 000° 0 kt METAR CZVL 010725Z AUTO 00000KT 9SM R26/0800V1400FT CLR 05/05 A3023 RMK SLP260
01:24
V
6 °C 5 mi - Var 000° 0 kt METAR CZVL 010724Z AUTO 00000KT 5SM R26/0800V1400FT/ BR CLR 06/06 A3023 RMK SLP260
01:08
I
7 °C 1¾ mi - 180° 180° 2 kt METAR CZVL 010708Z AUTO 18002KT 1 3/4SM R26/2000FT/N BR CLR 07/07 A3023 RMK VIS VRB 5/8-3 SLP258
00:51
I
7 °C 3 mi - Var 000° 0 kt METAR CZVL 010651Z AUTO 00000KT 3SM R26/1200V1800FT BR FEW002 07/07 A3022 RMK SLP257
00:44
L
7 °C ½ mi - 140° 140° 2 kt METAR CZVL 010644Z AUTO 14002KT 1/2SM R26/1600FT/N FG FEW002 07/07 A3022 RMK SLP255
00:32
L
6 °C ⅜ mi - Var 000° 0 kt METAR CZVL 010632Z AUTO 00000KT 3/8SM R26/P6000FT/N FG FEW002 06/06 A3023 RMK SLP261
00:24
I
8 °C 2¼ mi - Var 000° 0 kt METAR CZVL 010624Z AUTO 00000KT 2 1/4SM BR CLR 08/08 A3023 RMK SLP256
00:23
I
8 °C 3 mi - Var 000° 0 kt METAR CZVL 010623Z AUTO 00000KT 3SM BR CLR 08/08 A3023 RMK SLP256
00:00
V
8 °C 9 mi - 120° 120° 2 kt METAR CZVL 010600Z AUTO 12002KT 9SM CLR 08/08 A3023 RMK SLP251

30 września 2022

Czas Kod Pogoda Temp. Widoczność Sufit Wiatr METAR/SPECI
23:00
V
8 °C 9 mi - Var Var 2 kt METAR CZVL 010500Z AUTO VRB02KT 9SM CLR 08/08 A3023 RMK SLP252
22:00
V
9 °C 9 mi - 190° 190° 2 kt METAR CZVL 010400Z AUTO 19002KT 9SM CLR 09/08 A3023 RMK SLP254
21:00
V
11 °C 9 mi - 110° 110° 2 kt METAR CZVL 010300Z AUTO 11002KT 9SM CLR 11/09 A3022 RMK SLP248
20:00
V
12 °C 9 mi - Var 000° 0 kt METAR CZVL 010200Z AUTO 00000KT 9SM CLR 12/08 A3022 RMK SLP246
19:00
V
16 °C 9 mi - 110° 110° 3 kt METAR CZVL 010100Z AUTO 11003KT 9SM CLR 16/09 A3020 RMK SLP237 DENSITY ALT 2700FT
18:00
V
18 °C 9 mi - 090° 090° 4 kt METAR CZVL 010000Z AUTO 09004KT 9SM CLR 18/10 A3019 RMK SLP232 DENSITY ALT 2900FT
17:00
V
19 °C 9 mi - 110° 110° 7 kt METAR CZVL 302300Z AUTO 11007KT 060V140 9SM CLR 19/10 A3020 RMK SLP234 DENSITY ALT 2900FT
16:00
V
19 °C 9 mi - 080° 080° 6 kt METAR CZVL 302200Z AUTO 08006KT 030V120 9SM CLR 19/10 A3020 RMK SLP233 DENSITY ALT 3000FT
15:00
V
19 °C 9 mi - 070° 070° 5 kt METAR CZVL 302100Z AUTO 07005KT 030V100 9SM CLR 19/10 A3019 RMK SLP232 DENSITY ALT 3000FT
14:00
V
18 °C 9 mi - 030° 030° 7 kt METAR CZVL 302000Z AUTO 03007KT 280V090 9SM FEW032 18/11 A3020 RMK SLP234 DENSITY ALT 2900FT
13:00
V
17 °C 9 mi - 100° 100° 3 kt METAR CZVL 301900Z AUTO 10003KT 010V130 9SM CLR 17/11 A3021 RMK SLP239 DENSITY ALT 2700FT
12:00
V
15 °C 9 mi - 320° 320° 6 kt METAR CZVL 301800Z AUTO 32006KT 9SM FEW110 SCT240 15/11 A3021 RMK SLP240 DENSITY ALT 2500FT
11:00
V
13 °C 9 mi 11.000 ft 310° 310° 7 kt METAR CZVL 301700Z AUTO 31007KT 9SM BKN110 BKN230 13/11 A3020 RMK SLP238 DENSITY ALT 2300FT
10:00
V
12 °C 9 mi - 300° 300° 6 kt METAR CZVL 301600Z AUTO 30006KT 9SM FEW110 12/11 A3019 RMK SLP237
09:00
V
11 °C 9 mi 11.000 ft 310° 310° 4 kt METAR CZVL 301500Z AUTO 31004KT 9SM BKN110 11/11 A3018 RMK SLP233
08:03
V
10 °C 9 mi 12.000 ft 300° 300° 6 kt METAR CZVL 301403Z AUTO 30006KT 9SM FEW015 OVC120 10/10 A3017 RMK SLP233
08:00
V
10 °C 9 mi 12.000 ft 300° 300° 6 kt METAR CZVL 301400Z AUTO 30006KT 9SM -RA FEW015 OVC120 10/10 A3017 RMK SLP230
07:47
V
10 °C 9 mi 11.000 ft 290° 290° 8 kt METAR CZVL 301347Z AUTO 29008KT 9SM -RA SCT015 BKN110 10/10 A3017 RMK ICE MISG SLP234
07:00
V
10 °C 9 mi - 290° 290° 6 kt METAR CZVL 301300Z AUTO 29006KT 9SM FEW110 10/10 A3016 RMK SLP227
06:00
V
10 °C 9 mi 15.000 ft 310° 310° 4 kt METAR CZVL 301200Z AUTO 31004KT 9SM BKN150 BKN180 10/10 A3015 RMK SLP221
05:00
V
10 °C 9 mi - 300° 300° 5 kt METAR CZVL 301100Z AUTO 30005KT 9SM SCT140 10/10 A3015 RMK SLP219
04:00
V
11 °C 9 mi 11.000 ft 320° 320° 9 kt METAR CZVL 301000Z AUTO 32009KT 9SM BKN110 11/11 A3014 RMK SLP216
03:00
V
11 °C 9 mi 12.000 ft 310° 310° 7 kt METAR CZVL 300900Z AUTO 31007KT 9SM BKN120 11/11 A3014 RMK SLP216
02:00
V
11 °C 9 mi 13.000 ft 330° 330° 7 kt METAR CZVL 300800Z AUTO 33007KT 9SM BKN130 BKN150 11/11 A3012 RMK SLP208
01:00
V
11 °C 9 mi - 310° 310° 6 kt METAR CZVL 300700Z AUTO 31006KT 9SM FEW110 11/11 A3014 RMK SLP214
00:00
V
12 °C 9 mi 13.000 ft 320° 320° 8 kt METAR CZVL 300600Z AUTO 32008KT 9SM OVC130 12/11 A3014 RMK SLP213

29 września 2022

Czas Kod Pogoda Temp. Widoczność Sufit Wiatr METAR/SPECI
23:00
V
12 °C 9 mi 12.000 ft 320° 320° 7 kt METAR CZVL 300500Z AUTO 32007KT 9SM BKN120 12/11 A3013 RMK SLP213
22:00
V
11 °C 9 mi 13.000 ft 320° 320° 8 kt METAR CZVL 300400Z AUTO 32008KT 9SM BKN130 BKN200 11/10 A3011 RMK SLP210
21:00
V
11 °C 9 mi 19.000 ft 320° 320° 8 kt METAR CZVL 300300Z AUTO 32008KT 9SM OVC190 11/10 A3010 RMK SLP209
20:00
V
13 °C 9 mi 18.000 ft 350° 350° 8 kt METAR CZVL 300200Z AUTO 35008KT 9SM BKN180 BKN200 13/10 A3009 RMK SLP203 DENSITY ALT 2400FT
19:00
V
15 °C 9 mi - 350° 350° 9 - 15 kt METAR CZVL 300100Z AUTO 35009G15KT 9SM FEW140 15/10 A3007 RMK SLP195 DENSITY ALT 2700FT
18:00
V
16 °C 9 mi - 360° 360° 7 kt METAR CZVL 300000Z AUTO 36007KT 9SM CLR 16/10 A3007 RMK PRESRR SLP193 DENSITY ALT 2800FT
17:00
V
16 °C 9 mi - 320° 320° 13 - 18 kt METAR CZVL 292300Z AUTO 32013G18KT 9SM CLR 16/10 A3003 RMK SLP180 DENSITY ALT 2800FT
16:00
V
16 °C 9 mi 11.000 ft 280° 280° 7 kt METAR CZVL 292200Z AUTO 28007KT 250V320 9SM SCT096 BKN110 16/10 A3005 RMK SLP187 DENSITY ALT 2800FT
15:00
V
17 °C 9 mi - 330° 330° 9 kt METAR CZVL 292100Z AUTO 33009KT 9SM FEW120 17/09 A3002 RMK SLP177 DENSITY ALT 2900FT
14:00
V
18 °C 9 mi - 340° 340° 9 kt METAR CZVL 292000Z AUTO 34009KT 9SM CLR 18/10 A3002 RMK SLP175 DENSITY ALT 3000FT
13:00
V
18 °C 9 mi - 350° 350° 5 kt METAR CZVL 291900Z AUTO 35005KT 9SM SCT130 18/09 A3002 RMK SLP175 DENSITY ALT 3100FT
12:00
V
18 °C 9 mi - 330° 330° 5 kt METAR CZVL 291800Z AUTO 33005KT 290V010 9SM SCT130 18/09 A3001 RMK SLP171 DENSITY ALT 3000FT
11:00
V
15 °C 9 mi - 010° 010° 4 kt METAR CZVL 291700Z AUTO 01004KT 9SM FEW160 15/09 A2999 RMK SLP165 DENSITY ALT 2700FT
10:00
V
13 °C 9 mi - 360° 360° 8 kt METAR CZVL 291600Z AUTO 36008KT 9SM SCT140 13/09 A2998 RMK SLP161 DENSITY ALT 2600FT
09:00
V
11 °C 9 mi 13.000 ft 330° 330° 6 kt METAR CZVL 291500Z AUTO 33006KT 280V340 9SM BKN130 BKN160 11/09 A2996 RMK SLP157 DENSITY ALT 2300FT
08:00
V
10 °C 9 mi - 310° 310° 6 kt METAR CZVL 291400Z AUTO 31006KT 9SM SCT140 10/09 A2995 RMK SLP152
07:00
V
9 °C 9 mi 14.000 ft 320° 320° 5 kt METAR CZVL 291300Z AUTO 32005KT 9SM BKN140 BKN160 09/09 A2993 RMK SLP142
06:00
V
9 °C 9 mi 17.000 ft 310° 310° 5 kt METAR CZVL 291200Z AUTO 31005KT 9SM BKN170 09/08 A2993 RMK SLP139
05:00
V
9 °C 9 mi 19.000 ft 300° 300° 6 kt METAR CZVL 291100Z AUTO 30006KT 9SM BKN190 09/08 A2993 RMK SLP137
04:00
V
7 °C 9 mi 20.000 ft 310° 310° 5 kt METAR CZVL 291000Z AUTO 31005KT 9SM BKN200 07/06 A2993 RMK SLP139
03:00
V
9 °C 9 mi - Var 000° 0 kt METAR CZVL 290900Z AUTO 00000KT 9SM CLR 09/07 A2993 RMK SLP136
02:00
V
8 °C 9 mi - 310° 310° 3 kt METAR CZVL 290800Z AUTO 31003KT 9SM CLR 08/06 A2993 RMK SLP138
01:00
V
8 °C 9 mi - 320° 320° 3 kt METAR CZVL 290700Z AUTO 32003KT 9SM SCT230 08/06 A2993 RMK SLP141
Starsze dane

My i osoby trzecie śledzimy twoje zachowanie w internecie na naszej stronie za pomocą plików cookie. Jeśli kontynuujesz, zakładamy, że zgadzasz się z naszą polityką plików cookie. Dowiedz się więcej